sensor_id;sensor_type;location;lat;lon;timestamp;pressure;altitude;pressure_sealevel;temperature;humidity
66560;BME280;53413;49.878;8.142;2024-02-16T00:00:38;99704.75;;;12.56;100.00
66560;BME280;53413;49.878;8.142;2024-02-16T00:03:04;99699.41;;;12.58;100.00
66560;BME280;53413;49.878;8.142;2024-02-16T00:05:30;99699.31;;;12.59;100.00
66560;BME280;53413;49.878;8.142;2024-02-16T00:07:55;99692.31;;;12.60;100.00
66560;BME280;53413;49.878;8.142;2024-02-16T00:10:20;99699.25;;;12.61;100.00
66560;BME280;53413;49.878;8.142;2024-02-16T00:12:47;99698.38;;;12.60;100.00
66560;BME280;53413;49.878;8.142;2024-02-16T00:15:12;99691.44;;;12.59;100.00
66560;BME280;53413;49.878;8.142;2024-02-16T00:17:37;99692.97;;;12.63;100.00
66560;BME280;53413;49.878;8.142;2024-02-16T00:20:03;99680.47;;;12.69;100.00
66560;BME280;53413;49.878;8.142;2024-02-16T00:22:29;99677.84;;;12.69;100.00
66560;BME280;53413;49.878;8.142;2024-02-16T00:24:55;99684.06;;;12.66;100.00
66560;BME280;53413;49.878;8.142;2024-02-16T00:27:20;99691.13;;;12.66;100.00
66560;BME280;53413;49.878;8.142;2024-02-16T00:29:45;99680.66;;;12.64;100.00
66560;BME280;53413;49.878;8.142;2024-02-16T00:32:14;99673.03;;;12.59;100.00
66560;BME280;53413;49.878;8.142;2024-02-16T00:34:40;99671.28;;;12.60;100.00
66560;BME280;53413;49.878;8.142;2024-02-16T00:37:06;99673.97;;;12.58;100.00
66560;BME280;53413;49.878;8.142;2024-02-16T00:39:37;99675.84;;;12.56;100.00
66560;BME280;53413;49.878;8.142;2024-02-16T00:42:05;99681.09;;;12.56;100.00
66560;BME280;53413;49.878;8.142;2024-02-16T00:44:30;99680.31;;;12.54;100.00
66560;BME280;53413;49.878;8.142;2024-02-16T00:46:56;99682.28;;;12.51;100.00
66560;BME280;53413;49.878;8.142;2024-02-16T00:49:21;99692.94;;;12.47;100.00
66560;BME280;53413;49.878;8.142;2024-02-16T00:51:47;99684.41;;;12.42;100.00
66560;BME280;53413;49.878;8.142;2024-02-16T00:54:13;99691.84;;;12.34;100.00
66560;BME280;53413;49.878;8.142;2024-02-16T00:56:38;99693.84;;;12.29;100.00
66560;BME280;53413;49.878;8.142;2024-02-16T00:59:04;99692.38;;;12.23;100.00
66560;BME280;53413;49.878;8.142;2024-02-16T01:01:30;99683.91;;;12.18;100.00
66560;BME280;53413;49.878;8.142;2024-02-16T01:03:56;99682.50;;;12.11;100.00
66560;BME280;53413;49.878;8.142;2024-02-16T01:06:21;99689.59;;;12.09;100.00
66560;BME280;53413;49.878;8.142;2024-02-16T01:08:46;99690.69;;;12.05;100.00
66560;BME280;53413;49.878;8.142;2024-02-16T01:11:12;99686.50;;;12.00;100.00
66560;BME280;53413;49.878;8.142;2024-02-16T01:13:39;99690.06;;;11.99;100.00
66560;BME280;53413;49.878;8.142;2024-02-16T01:16:04;99694.47;;;11.99;100.00
66560;BME280;53413;49.878;8.142;2024-02-16T01:18:30;99693.78;;;11.94;100.00
66560;BME280;53413;49.878;8.142;2024-02-16T01:20:55;99690.38;;;11.92;100.00
66560;BME280;53413;49.878;8.142;2024-02-16T01:23:21;99694.25;;;11.84;100.00
66560;BME280;53413;49.878;8.142;2024-02-16T01:25:46;99691.44;;;11.70;100.00
66560;BME280;53413;49.878;8.142;2024-02-16T01:28:12;99697.56;;;11.70;100.00
66560;BME280;53413;49.878;8.142;2024-02-16T01:30:39;99690.75;;;11.66;100.00
66560;BME280;53413;49.878;8.142;2024-02-16T01:33:05;99690.88;;;11.63;100.00
66560;BME280;53413;49.878;8.142;2024-02-16T01:35:31;99690.19;;;11.60;100.00
66560;BME280;53413;49.878;8.142;2024-02-16T01:37:57;99691.97;;;11.59;100.00
66560;BME280;53413;49.878;8.142;2024-02-16T01:40:22;99692.19;;;11.54;100.00
66560;BME280;53413;49.878;8.142;2024-02-16T01:42:51;99695.19;;;11.47;100.00
66560;BME280;53413;49.878;8.142;2024-02-16T01:45:18;99686.78;;;11.38;100.00
66560;BME280;53413;49.878;8.142;2024-02-16T01:47:43;99687.09;;;11.32;100.00
66560;BME280;53413;49.878;8.142;2024-02-16T01:50:11;99691.84;;;11.24;100.00
66560;BME280;53413;49.878;8.142;2024-02-16T01:52:37;99687.00;;;11.15;100.00
66560;BME280;53413;49.878;8.142;2024-02-16T01:55:06;99680.56;;;11.03;100.00
66560;BME280;53413;49.878;8.142;2024-02-16T01:57:38;99681.81;;;10.94;100.00
66560;BME280;53413;49.878;8.142;2024-02-16T02:00:04;99693.53;;;10.87;100.00
66560;BME280;53413;49.878;8.142;2024-02-16T02:02:33;99690.25;;;10.82;100.00
66560;BME280;53413;49.878;8.142;2024-02-16T02:04:58;99686.03;;;10.77;100.00
66560;BME280;53413;49.878;8.142;2024-02-16T02:07:27;99687.16;;;10.72;100.00
66560;BME280;53413;49.878;8.142;2024-02-16T02:09:53;99690.69;;;10.71;100.00
66560;BME280;53413;49.878;8.142;2024-02-16T02:12:18;99691.66;;;10.70;100.00
66560;BME280;53413;49.878;8.142;2024-02-16T02:14:44;99686.47;;;10.68;100.00
66560;BME280;53413;49.878;8.142;2024-02-16T02:17:09;99689.16;;;10.67;100.00
66560;BME280;53413;49.878;8.142;2024-02-16T02:19:35;99691.81;;;10.65;100.00
66560;BME280;53413;49.878;8.142;2024-02-16T02:22:00;99678.81;;;10.63;100.00
66560;BME280;53413;49.878;8.142;2024-02-16T02:24:26;99693.53;;;10.66;100.00
66560;BME280;53413;49.878;8.142;2024-02-16T02:26:51;99682.09;;;10.69;100.00
66560;BME280;53413;49.878;8.142;2024-02-16T02:29:17;99672.22;;;10.74;100.00
66560;BME280;53413;49.878;8.142;2024-02-16T02:31:42;99681.66;;;10.78;100.00
66560;BME280;53413;49.878;8.142;2024-02-16T02:34:07;99684.00;;;10.84;100.00
66560;BME280;53413;49.878;8.142;2024-02-16T02:36:33;99681.25;;;10.87;100.00
66560;BME280;53413;49.878;8.142;2024-02-16T02:38:58;99682.81;;;10.91;100.00
66560;BME280;53413;49.878;8.142;2024-02-16T02:41:24;99682.66;;;10.94;100.00
66560;BME280;53413;49.878;8.142;2024-02-16T02:43:50;99679.06;;;10.97;100.00
66560;BME280;53413;49.878;8.142;2024-02-16T02:46:16;99680.63;;;11.01;100.00
66560;BME280;53413;49.878;8.142;2024-02-16T02:48:45;99672.63;;;11.04;100.00
66560;BME280;53413;49.878;8.142;2024-02-16T02:51:11;99678.72;;;11.05;100.00
66560;BME280;53413;49.878;8.142;2024-02-16T02:53:36;99679.56;;;11.05;100.00
66560;BME280;53413;49.878;8.142;2024-02-16T02:56:02;99676.81;;;11.08;100.00
66560;BME280;53413;49.878;8.142;2024-02-16T02:58:28;99677.59;;;11.11;100.00
66560;BME280;53413;49.878;8.142;2024-02-16T03:00:54;99680.16;;;11.12;100.00
66560;BME280;53413;49.878;8.142;2024-02-16T03:03:20;99675.03;;;11.09;100.00
66560;BME280;53413;49.878;8.142;2024-02-16T03:05:45;99671.56;;;11.08;100.00
66560;BME280;53413;49.878;8.142;2024-02-16T03:08:10;99679.44;;;11.08;100.00
66560;BME280;53413;49.878;8.142;2024-02-16T03:10:36;99672.19;;;11.14;100.00
66560;BME280;53413;49.878;8.142;2024-02-16T03:13:02;99675.72;;;11.13;100.00
66560;BME280;53413;49.878;8.142;2024-02-16T03:15:28;99673.91;;;11.15;100.00
66560;BME280;53413;49.878;8.142;2024-02-16T03:17:55;99672.16;;;11.15;100.00
66560;BME280;53413;49.878;8.142;2024-02-16T03:20:20;99676.16;;;11.22;100.00
66560;BME280;53413;49.878;8.142;2024-02-16T03:22:46;99678.66;;;11.26;100.00
66560;BME280;53413;49.878;8.142;2024-02-16T03:25:12;99672.34;;;11.30;100.00
66560;BME280;53413;49.878;8.142;2024-02-16T03:27:37;99672.97;;;11.35;100.00
66560;BME280;53413;49.878;8.142;2024-02-16T03:30:03;99670.34;;;11.35;100.00
66560;BME280;53413;49.878;8.142;2024-02-16T03:32:30;99671.28;;;11.34;100.00
66560;BME280;53413;49.878;8.142;2024-02-16T03:34:57;99677.44;;;11.33;100.00
66560;BME280;53413;49.878;8.142;2024-02-16T03:37:22;99668.09;;;11.27;100.00
66560;BME280;53413;49.878;8.142;2024-02-16T03:39:48;99668.53;;;11.18;100.00
66560;BME280;53413;49.878;8.142;2024-02-16T03:42:13;99662.00;;;11.07;100.00
66560;BME280;53413;49.878;8.142;2024-02-16T03:44:38;99672.03;;;10.98;100.00
66560;BME280;53413;49.878;8.142;2024-02-16T03:47:04;99670.69;;;10.89;100.00
66560;BME280;53413;49.878;8.142;2024-02-16T03:49:29;99673.47;;;10.86;100.00
66560;BME280;53413;49.878;8.142;2024-02-16T03:51:54;99684.09;;;10.83;100.00
66560;BME280;53413;49.878;8.142;2024-02-16T03:54:20;99678.75;;;10.84;100.00
66560;BME280;53413;49.878;8.142;2024-02-16T03:56:45;99688.28;;;10.87;100.00
66560;BME280;53413;49.878;8.142;2024-02-16T03:59:11;99693.31;;;10.91;100.00
66560;BME280;53413;49.878;8.142;2024-02-16T04:01:36;99694.81;;;10.97;100.00
66560;BME280;53413;49.878;8.142;2024-02-16T04:04:01;99690.13;;;11.04;100.00
66560;BME280;53413;49.878;8.142;2024-02-16T04:06:28;99687.09;;;11.13;100.00
66560;BME280;53413;49.878;8.142;2024-02-16T04:08:53;99693.81;;;11.19;100.00
66560;BME280;53413;49.878;8.142;2024-02-16T04:11:19;99696.38;;;11.20;100.00
66560;BME280;53413;49.878;8.142;2024-02-16T04:13:44;99690.28;;;11.20;100.00
66560;BME280;53413;49.878;8.142;2024-02-16T04:16:10;99691.06;;;11.22;100.00
66560;BME280;53413;49.878;8.142;2024-02-16T04:18:35;99695.22;;;11.26;100.00
66560;BME280;53413;49.878;8.142;2024-02-16T04:21:00;99686.53;;;11.26;100.00
66560;BME280;53413;49.878;8.142;2024-02-16T04:23:26;99687.94;;;11.33;100.00
66560;BME280;53413;49.878;8.142;2024-02-16T04:25:51;99686.66;;;11.42;100.00
66560;BME280;53413;49.878;8.142;2024-02-16T04:28:17;99686.75;;;11.40;100.00
66560;BME280;53413;49.878;8.142;2024-02-16T04:30:43;99681.19;;;11.27;100.00
66560;BME280;53413;49.878;8.142;2024-02-16T04:33:09;99690.28;;;11.20;100.00
66560;BME280;53413;49.878;8.142;2024-02-16T04:35:34;99699.00;;;11.20;100.00
66560;BME280;53413;49.878;8.142;2024-02-16T04:37:59;99694.47;;;11.24;100.00
66560;BME280;53413;49.878;8.142;2024-02-16T04:40:25;99691.69;;;11.27;100.00
66560;BME280;53413;49.878;8.142;2024-02-16T04:42:50;99689.94;;;11.28;100.00
66560;BME280;53413;49.878;8.142;2024-02-16T04:45:16;99694.19;;;11.30;100.00
66560;BME280;53413;49.878;8.142;2024-02-16T04:47:41;99699.56;;;11.27;100.00
66560;BME280;53413;49.878;8.142;2024-02-16T04:50:07;99691.78;;;11.26;100.00
66560;BME280;53413;49.878;8.142;2024-02-16T04:52:37;99698.84;;;11.23;100.00
66560;BME280;53413;49.878;8.142;2024-02-16T04:55:03;99693.63;;;11.23;100.00
66560;BME280;53413;49.878;8.142;2024-02-16T04:57:29;99695.19;;;11.28;100.00
66560;BME280;53413;49.878;8.142;2024-02-16T04:59:54;99699.34;;;11.32;100.00
66560;BME280;53413;49.878;8.142;2024-02-16T05:02:19;99699.44;;;11.30;100.00
66560;BME280;53413;49.878;8.142;2024-02-16T05:04:44;99696.03;;;11.28;100.00
66560;BME280;53413;49.878;8.142;2024-02-16T05:07:10;99708.34;;;11.26;100.00
66560;BME280;53413;49.878;8.142;2024-02-16T05:09:35;99701.41;;;11.25;100.00
66560;BME280;53413;49.878;8.142;2024-02-16T05:12:00;99700.56;;;11.24;100.00
66560;BME280;53413;49.878;8.142;2024-02-16T05:14:26;99698.94;;;11.22;100.00
66560;BME280;53413;49.878;8.142;2024-02-16T05:16:51;99708.66;;;11.20;100.00
66560;BME280;53413;49.878;8.142;2024-02-16T05:19:16;99706.28;;;11.14;100.00
66560;BME280;53413;49.878;8.142;2024-02-16T05:21:42;99716.16;;;11.08;100.00
66560;BME280;53413;49.878;8.142;2024-02-16T05:24:07;99708.34;;;11.07;100.00
66560;BME280;53413;49.878;8.142;2024-02-16T05:26:33;99711.91;;;11.06;100.00
66560;BME280;53413;49.878;8.142;2024-02-16T05:28:59;99709.28;;;11.06;100.00
66560;BME280;53413;49.878;8.142;2024-02-16T05:31:24;99711.03;;;11.05;100.00
66560;BME280;53413;49.878;8.142;2024-02-16T05:33:51;99710.81;;;11.10;100.00
66560;BME280;53413;49.878;8.142;2024-02-16T05:36:21;99714.31;;;11.11;100.00
66560;BME280;53413;49.878;8.142;2024-02-16T05:38:49;99713.44;;;11.10;100.00
66560;BME280;53413;49.878;8.142;2024-02-16T05:41:18;99715.16;;;11.11;100.00
66560;BME280;53413;49.878;8.142;2024-02-16T05:43:44;99716.03;;;11.12;100.00
66560;BME280;53413;49.878;8.142;2024-02-16T05:46:16;99719.69;;;11.07;100.00
66560;BME280;53413;49.878;8.142;2024-02-16T05:48:42;99708.19;;;11.10;100.00
66560;BME280;53413;49.878;8.142;2024-02-16T05:51:07;99713.53;;;11.08;100.00
66560;BME280;53413;49.878;8.142;2024-02-16T05:53:33;99713.78;;;11.02;100.00
66560;BME280;53413;49.878;8.142;2024-02-16T05:55:59;99709.34;;;11.04;100.00
66560;BME280;53413;49.878;8.142;2024-02-16T05:58:25;99709.47;;;11.01;100.00
66560;BME280;53413;49.878;8.142;2024-02-16T06:00:50;99713.03;;;11.00;100.00
66560;BME280;53413;49.878;8.142;2024-02-16T06:03:16;99707.06;;;10.97;100.00
66560;BME280;53413;49.878;8.142;2024-02-16T06:05:41;99715.53;;;10.83;100.00
66560;BME280;53413;49.878;8.142;2024-02-16T06:08:10;99708.91;;;10.74;100.00
66560;BME280;53413;49.878;8.142;2024-02-16T06:10:35;99708.91;;;10.74;100.00
66560;BME280;53413;49.878;8.142;2024-02-16T06:13:01;99714.25;;;10.72;100.00
66560;BME280;53413;49.878;8.142;2024-02-16T06:15:26;99712.53;;;10.71;100.00
66560;BME280;53413;49.878;8.142;2024-02-16T06:17:52;99713.31;;;10.73;100.00
66560;BME280;53413;49.878;8.142;2024-02-16T06:20:17;99711.50;;;10.75;100.00
66560;BME280;53413;49.878;8.142;2024-02-16T06:22:43;99717.38;;;10.81;100.00
66560;BME280;53413;49.878;8.142;2024-02-16T06:25:09;99718.25;;;10.81;100.00
66560;BME280;53413;49.878;8.142;2024-02-16T06:27:35;99717.25;;;10.84;100.00
66560;BME280;53413;49.878;8.142;2024-02-16T06:30:00;99721.50;;;10.86;100.00
66560;BME280;53413;49.878;8.142;2024-02-16T06:32:26;99726.53;;;10.91;100.00
66560;BME280;53413;49.878;8.142;2024-02-16T06:34:52;99726.47;;;10.92;100.00
66560;BME280;53413;49.878;8.142;2024-02-16T06:37:18;99727.19;;;10.96;100.00
66560;BME280;53413;49.878;8.142;2024-02-16T06:39:43;99726.91;;;11.02;100.00
66560;BME280;53413;49.878;8.142;2024-02-16T06:42:08;99731.88;;;11.08;100.00
66560;BME280;53413;49.878;8.142;2024-02-16T06:44:37;99726.22;;;11.18;100.00
66560;BME280;53413;49.878;8.142;2024-02-16T06:47:03;99737.28;;;11.24;100.00
66560;BME280;53413;49.878;8.142;2024-02-16T06:49:28;99733.53;;;11.30;100.00
66560;BME280;53413;49.878;8.142;2024-02-16T06:51:54;99738.50;;;11.36;100.00
66560;BME280;53413;49.878;8.142;2024-02-16T06:54:20;99753.31;;;11.37;100.00
66560;BME280;53413;49.878;8.142;2024-02-16T06:56:45;99737.56;;;11.37;100.00
66560;BME280;53413;49.878;8.142;2024-02-16T06:59:11;99745.59;;;11.34;100.00
66560;BME280;53413;49.878;8.142;2024-02-16T07:01:36;99755.31;;;11.32;100.00
66560;BME280;53413;49.878;8.142;2024-02-16T07:04:01;99753.47;;;11.34;100.00
66560;BME280;53413;49.878;8.142;2024-02-16T07:06:27;99757.56;;;11.40;100.00
66560;BME280;53413;49.878;8.142;2024-02-16T07:08:52;99770.47;;;11.45;100.00
66560;BME280;53413;49.878;8.142;2024-02-16T07:11:17;99770.34;;;11.48;100.00
66560;BME280;53413;49.878;8.142;2024-02-16T07:13:46;99768.22;;;11.56;100.00
66560;BME280;53413;49.878;8.142;2024-02-16T07:16:11;99770.41;;;11.65;100.00
66560;BME280;53413;49.878;8.142;2024-02-16T07:18:36;99773.59;;;11.72;100.00
66560;BME280;53413;49.878;8.142;2024-02-16T07:21:02;99774.16;;;11.79;100.00
66560;BME280;53413;49.878;8.142;2024-02-16T07:23:28;99778.97;;;11.88;100.00
66560;BME280;53413;49.878;8.142;2024-02-16T07:25:54;99788.91;;;12.00;100.00
66560;BME280;53413;49.878;8.142;2024-02-16T07:28:22;99785.03;;;12.27;100.00
66560;BME280;53413;49.878;8.142;2024-02-16T07:30:47;99784.22;;;12.61;100.00
66560;BME280;53413;49.878;8.142;2024-02-16T07:33:12;99783.34;;;12.96;100.00
66560;BME280;53413;49.878;8.142;2024-02-16T07:35:38;99779.88;;;13.29;100.00
66560;BME280;53413;49.878;8.142;2024-02-16T07:38:04;99779.50;;;13.69;100.00
66560;BME280;53413;49.878;8.142;2024-02-16T07:40:29;99781.63;;;14.10;100.00
66560;BME280;53413;49.878;8.142;2024-02-16T07:42:56;99789.91;;;14.35;100.00
66560;BME280;53413;49.878;8.142;2024-02-16T07:45:21;99784.97;;;14.44;100.00
66560;BME280;53413;49.878;8.142;2024-02-16T07:47:47;99782.50;;;14.41;100.00
66560;BME280;53413;49.878;8.142;2024-02-16T07:50:12;99786.22;;;14.23;100.00
66560;BME280;53413;49.878;8.142;2024-02-16T07:52:38;99775.69;;;14.07;100.00
66560;BME280;53413;49.878;8.142;2024-02-16T07:55:06;99782.50;;;13.95;100.00
66560;BME280;53413;49.878;8.142;2024-02-16T07:57:31;99781.16;;;13.88;100.00
66560;BME280;53413;49.878;8.142;2024-02-16T07:59:57;99784.72;;;13.87;100.00
66560;BME280;53413;49.878;8.142;2024-02-16T08:02:24;99785.91;;;13.81;100.00
66560;BME280;53413;49.878;8.142;2024-02-16T08:04:49;99796.34;;;13.82;100.00
66560;BME280;53413;49.878;8.142;2024-02-16T08:07:15;99793.88;;;13.79;100.00
66560;BME280;53413;49.878;8.142;2024-02-16T08:09:44;99808.16;;;13.75;100.00
66560;BME280;53413;49.878;8.142;2024-02-16T08:12:10;99802.28;;;13.70;100.00
66560;BME280;53413;49.878;8.142;2024-02-16T08:14:35;99804.91;;;13.70;100.00
66560;BME280;53413;49.878;8.142;2024-02-16T08:17:01;99808.91;;;13.77;100.00
66560;BME280;53413;49.878;8.142;2024-02-16T08:19:37;99804.91;;;13.86;100.00
66560;BME280;53413;49.878;8.142;2024-02-16T08:22:07;99806.34;;;13.92;100.00
66560;BME280;53413;49.878;8.142;2024-02-16T08:24:36;99810.19;;;14.02;100.00
66560;BME280;53413;49.878;8.142;2024-02-16T08:27:02;99812.38;;;14.10;100.00
66560;BME280;53413;49.878;8.142;2024-02-16T08:29:27;99812.56;;;14.23;100.00
66560;BME280;53413;49.878;8.142;2024-02-16T08:31:54;99811.00;;;14.35;100.00
66560;BME280;53413;49.878;8.142;2024-02-16T08:34:19;99810.22;;;14.49;100.00
66560;BME280;53413;49.878;8.142;2024-02-16T08:36:46;99811.38;;;14.59;100.00
66560;BME280;53413;49.878;8.142;2024-02-16T08:39:12;99810.06;;;14.66;100.00
66560;BME280;53413;49.878;8.142;2024-02-16T08:41:38;99818.00;;;14.66;100.00
66560;BME280;53413;49.878;8.142;2024-02-16T08:44:04;99819.28;;;14.59;100.00
66560;BME280;53413;49.878;8.142;2024-02-16T08:46:29;99821.34;;;14.54;100.00
66560;BME280;53413;49.878;8.142;2024-02-16T08:48:55;99817.16;;;14.50;100.00
66560;BME280;53413;49.878;8.142;2024-02-16T08:51:20;99821.44;;;14.52;100.00
66560;BME280;53413;49.878;8.142;2024-02-16T08:53:46;99823.31;;;14.50;100.00
66560;BME280;53413;49.878;8.142;2024-02-16T08:56:11;99827.53;;;14.53;100.00
66560;BME280;53413;49.878;8.142;2024-02-16T08:58:37;99824.56;;;14.59;100.00
66560;BME280;53413;49.878;8.142;2024-02-16T09:01:03;99820.56;;;14.68;100.00
66560;BME280;53413;49.878;8.142;2024-02-16T09:03:29;99830.75;;;14.74;100.00
66560;BME280;53413;49.878;8.142;2024-02-16T09:05:54;99831.06;;;14.84;100.00
66560;BME280;53413;49.878;8.142;2024-02-16T09:08:20;99831.63;;;14.89;100.00
66560;BME280;53413;49.878;8.142;2024-02-16T09:10:45;99835.81;;;14.93;100.00
66560;BME280;53413;49.878;8.142;2024-02-16T09:13:10;99844.66;;;14.92;100.00
66560;BME280;53413;49.878;8.142;2024-02-16T09:15:36;99843.06;;;14.89;100.00
66560;BME280;53413;49.878;8.142;2024-02-16T09:18:02;99844.66;;;14.92;100.00
66560;BME280;53413;49.878;8.142;2024-02-16T09:20:28;99849.00;;;14.93;100.00
66560;BME280;53413;49.878;8.142;2024-02-16T09:22:54;99848.72;;;14.98;100.00
66560;BME280;53413;49.878;8.142;2024-02-16T09:25:19;99850.16;;;15.03;100.00
66560;BME280;53413;49.878;8.142;2024-02-16T09:27:44;99865.59;;;15.09;100.00
66560;BME280;53413;49.878;8.142;2024-02-16T09:30:11;99856.00;;;15.08;100.00
66560;BME280;53413;49.878;8.142;2024-02-16T09:32:39;99863.72;;;15.12;100.00
66560;BME280;53413;49.878;8.142;2024-02-16T09:35:05;99862.44;;;15.19;100.00
66560;BME280;53413;49.878;8.142;2024-02-16T09:37:31;99858.84;;;15.20;100.00
66560;BME280;53413;49.878;8.142;2024-02-16T09:39:56;99860.81;;;15.16;100.00
66560;BME280;53413;49.878;8.142;2024-02-16T09:42:23;99859.34;;;15.27;100.00
66560;BME280;53413;49.878;8.142;2024-02-16T09:44:51;99866.09;;;15.31;100.00
66560;BME280;53413;49.878;8.142;2024-02-16T09:47:17;99873.75;;;15.50;100.00
66560;BME280;53413;49.878;8.142;2024-02-16T09:49:45;99875.09;;;15.57;100.00
66560;BME280;53413;49.878;8.142;2024-02-16T09:52:13;99878.31;;;15.77;100.00
66560;BME280;53413;49.878;8.142;2024-02-16T09:54:39;99873.03;;;15.91;100.00
66560;BME280;53413;49.878;8.142;2024-02-16T09:57:04;99873.22;;;16.03;100.00
66560;BME280;53413;49.878;8.142;2024-02-16T09:59:30;99871.84;;;16.10;100.00
66560;BME280;53413;49.878;8.142;2024-02-16T10:02:03;99869.84;;;16.28;100.00
66560;BME280;53413;49.878;8.142;2024-02-16T10:04:29;99870.75;;;16.41;100.00
66560;BME280;53413;49.878;8.142;2024-02-16T10:06:54;99868.69;;;16.59;100.00
66560;BME280;53413;49.878;8.142;2024-02-16T10:09:27;99877.22;;;16.77;100.00
66560;BME280;53413;49.878;8.142;2024-02-16T10:11:55;99877.22;;;16.90;100.00
66560;BME280;53413;49.878;8.142;2024-02-16T10:14:22;99884.28;;;17.04;100.00
66560;BME280;53413;49.878;8.142;2024-02-16T10:16:47;99880.19;;;17.13;100.00
66560;BME280;53413;49.878;8.142;2024-02-16T10:19:13;99880.69;;;17.18;99.96
66560;BME280;53413;49.878;8.142;2024-02-16T10:21:39;99891.84;;;17.23;100.00
66560;BME280;53413;49.878;8.142;2024-02-16T10:24:07;99894.88;;;17.17;99.48
66560;BME280;53413;49.878;8.142;2024-02-16T10:26:34;99889.50;;;17.19;99.73
66560;BME280;53413;49.878;8.142;2024-02-16T10:29:03;99882.81;;;17.13;98.79
66560;BME280;53413;49.878;8.142;2024-02-16T10:31:30;99894.88;;;17.17;99.40
66560;BME280;53413;49.878;8.142;2024-02-16T10:33:58;99893.53;;;17.25;98.01
66560;BME280;53413;49.878;8.142;2024-02-16T10:36:25;99895.22;;;17.26;97.67
66560;BME280;53413;49.878;8.142;2024-02-16T10:38:52;99890.25;;;17.34;97.22
66560;BME280;53413;49.878;8.142;2024-02-16T10:41:18;99891.50;;;17.41;97.52
66560;BME280;53413;49.878;8.142;2024-02-16T10:43:47;99906.53;;;17.28;95.79
66560;BME280;53413;49.878;8.142;2024-02-16T10:46:15;99902.06;;;17.15;97.52
66560;BME280;53413;49.878;8.142;2024-02-16T10:48:41;99905.06;;;17.23;97.03
66560;BME280;53413;49.878;8.142;2024-02-16T10:51:07;99906.97;;;17.21;95.12
66560;BME280;53413;49.878;8.142;2024-02-16T10:53:34;99903.50;;;17.34;95.16
66560;BME280;53413;49.878;8.142;2024-02-16T10:56:00;99903.59;;;17.58;94.16
66560;BME280;53413;49.878;8.142;2024-02-16T10:58:27;99906.63;;;17.91;92.96
66560;BME280;53413;49.878;8.142;2024-02-16T11:00:54;99915.25;;;18.07;91.75
66560;BME280;53413;49.878;8.142;2024-02-16T11:03:26;99919.22;;;18.26;90.54
66560;BME280;53413;49.878;8.142;2024-02-16T11:05:53;99912.75;;;18.30;89.21
66560;BME280;53413;49.878;8.142;2024-02-16T11:08:20;99915.53;;;18.15;89.14
66560;BME280;53413;49.878;8.142;2024-02-16T11:13:27;99912.19;;;18.00;86.26
66560;BME280;53413;49.878;8.142;2024-02-16T11:16:00;99911.81;;;17.92;86.66
66560;BME280;53413;49.878;8.142;2024-02-16T11:18:27;99906.84;;;17.88;85.34
66560;BME280;53413;49.878;8.142;2024-02-16T11:20:52;99912.06;;;17.76;84.89
66560;BME280;53413;49.878;8.142;2024-02-16T11:23:25;99915.38;;;17.80;84.82
66560;BME280;53413;49.878;8.142;2024-02-16T11:25:53;99915.03;;;17.72;84.47
66560;BME280;53413;49.878;8.142;2024-02-16T11:28:18;99916.44;;;17.64;84.18
66560;BME280;53413;49.878;8.142;2024-02-16T11:30:44;99909.53;;;17.75;85.17
66560;BME280;53413;49.878;8.142;2024-02-16T11:33:12;99910.38;;;18.01;83.77
66560;BME280;53413;49.878;8.142;2024-02-16T11:35:37;99908.38;;;18.29;83.07
66560;BME280;53413;49.878;8.142;2024-02-16T11:38:04;99910.81;;;18.56;82.38
66560;BME280;53413;49.878;8.142;2024-02-16T11:40:30;99908.78;;;18.84;81.22
66560;BME280;53413;49.878;8.142;2024-02-16T11:43:02;99912.66;;;19.04;77.83
66560;BME280;53413;49.878;8.142;2024-02-16T11:45:27;99901.72;;;19.32;78.19
66560;BME280;53413;49.878;8.142;2024-02-16T11:48:23;99914.41;;;19.40;76.04
66560;BME280;53413;49.878;8.142;2024-02-16T11:51:02;99911.09;;;19.25;76.88
66560;BME280;53413;49.878;8.142;2024-02-16T11:53:28;99908.41;;;19.13;76.51
66560;BME280;53413;49.878;8.142;2024-02-16T11:55:54;99910.13;;;19.14;77.42
66560;BME280;53413;49.878;8.142;2024-02-16T11:58:19;99913.63;;;19.15;77.84
66560;BME280;53413;49.878;8.142;2024-02-16T12:00:46;99904.91;;;19.01;76.87
66560;BME280;53413;49.878;8.142;2024-02-16T12:03:18;99907.69;;;19.00;77.68
66560;BME280;53413;49.878;8.142;2024-02-16T12:05:55;99900.03;;;18.95;77.58
66560;BME280;53413;49.878;8.142;2024-02-16T12:08:21;99904.38;;;18.96;77.33
66560;BME280;53413;49.878;8.142;2024-02-16T12:10:47;99903.25;;;18.87;77.88
66560;BME280;53413;49.878;8.142;2024-02-16T12:13:16;99901.31;;;18.89;78.37
66560;BME280;53413;49.878;8.142;2024-02-16T12:15:44;99900.59;;;18.87;78.42
66560;BME280;53413;49.878;8.142;2024-02-16T12:18:09;99892.66;;;18.87;78.93
66560;BME280;53413;49.878;8.142;2024-02-16T12:20:34;99895.91;;;18.91;78.92
66560;BME280;53413;49.878;8.142;2024-02-16T12:23:10;99887.28;;;19.00;79.23
66560;BME280;53413;49.878;8.142;2024-02-16T12:25:35;99887.31;;;19.23;79.94
66560;BME280;53413;49.878;8.142;2024-02-16T12:28:01;99894.38;;;19.47;79.93
66560;BME280;53413;49.878;8.142;2024-02-16T12:30:26;99894.16;;;19.73;78.90
66560;BME280;53413;49.878;8.142;2024-02-16T12:32:51;99888.03;;;19.95;78.96
66560;BME280;53413;49.878;8.142;2024-02-16T12:35:18;99880.84;;;20.07;78.19
66560;BME280;53413;49.878;8.142;2024-02-16T12:37:43;99881.00;;;20.05;79.37
66560;BME280;53413;49.878;8.142;2024-02-16T12:40:08;99897.06;;;20.04;78.46
66560;BME280;53413;49.878;8.142;2024-02-16T12:42:34;99889.44;;;19.99;78.07
66560;BME280;53413;49.878;8.142;2024-02-16T12:44:59;99899.13;;;20.00;78.01
66560;BME280;53413;49.878;8.142;2024-02-16T12:47:24;99895.13;;;19.94;77.94
66560;BME280;53413;49.878;8.142;2024-02-16T12:49:50;99889.56;;;19.97;78.04